• Join FlightAware (Why Join?)
  • Login
  • US Flag 
07:07PM EDT


 

Airport Tracker/Info


-or-


 

Live Flight TrackerFlight Track Log ✈ N23WJ ✈ 05-Jun-2013 ✈ KCSG - KPDK

Flight Track Log - Related Links

Times and Time Zones

All times are in EDT time to prevent confusion due to time zone crossing. See the N23WJ flight status page for this flight to view local times or setup timezone preferences in your user account.

Time Position Orientation Groundspeed Altitude Reporting Facility
EDT Latitude Longitude Course Direction KTS MPH feet Rate Location/Type
05:42PM 32.5333 -84.9167 337° Northwest 132 152 1,300  Level Atlanta TRACON
05:43PM 32.5667 -84.9333 337° Northwest 140 161 3,300 1,980 Climbing Atlanta TRACON
05:44PM 32.6000 -84.9333 360° North 144 166 5,300 1,800 Climbing Atlanta TRACON
05:45PM 32.6500 -84.9500 344° North 149 171 7,000 1,740 Climbing Atlanta TRACON
05:46PM 32.6833 -84.9667 337° Northwest 153 176 8,800 960 Climbing Atlanta TRACON
05:47PM 32.7333 -84.9833 344° North 215 247 9,000 60 Climbing Atlanta TRACON
05:48PM 32.8000 -85.0000 348° North 247 284 9,000  Level Atlanta TRACON
05:49PM 32.8667 -85.0167 348° North 252 290 9,000  Level Atlanta TRACON
05:50PM 32.9500 -85.0333 350° North 254 292 9,000  Level Atlanta TRACON
05:51PM 33.0167 -85.0500 348° North 254 292 9,000  Level Atlanta TRACON
05:52PM 33.0833 -85.0833 337° Northwest 258 297 9,000  Level Atlanta TRACON
05:53PM 33.1500 -85.1000 348° North 257 296 9,000  Level Atlanta TRACON
05:54PM 33.2167 -85.1167 348° North 255 293 9,000 -60 Level Atlanta TRACON
05:55PM 33.2833 -85.1333 348° North 254 292 8,900 -540 Descending Atlanta TRACON
05:56PM 33.3500 -85.1167 12° North 272 313 8,000 -900 Descending Atlanta TRACON
05:57PM 33.4167 -85.1000 12° North 265 305 7,200 -840 Descending Atlanta TRACON
05:58PM 33.4833 -85.0833 12° North 228 262 6,400 -1,140 Descending Atlanta TRACON
05:59PM 33.5500 -85.0667 12° North 220 253 5,000 -720 Descending Atlanta TRACON
06:00PM 33.6000 -85.0667 360° North 219 252 5,000  Level Atlanta TRACON
06:01PM 33.6667 -85.0500 12° North 237 273 5,000  Level Atlanta TRACON
06:02PM 33.7333 -85.0333 12° North 248 285 5,000  Level Atlanta TRACON
06:03PM 33.8000 -85.0000 23° Northeast 242 278 5,000  Level Atlanta TRACON
06:04PM 33.8333 -84.9500 51° Northeast 225 259 5,000  Level Atlanta TRACON
06:05PM 33.8667 -84.8833 59° Northeast 228 262 5,000  Level Atlanta TRACON
06:06PM 33.9000 -84.8167 59° Northeast 225 259 5,000  Level Atlanta TRACON
06:07PM 33.9167 -84.7500 73° East 228 262 5,000  Level Atlanta TRACON
06:08PM 33.9333 -84.6667 76° East 218 251 5,000  Level Atlanta TRACON
06:09PM 33.9500 -84.6000 73° East 213 245 5,000 -540 Level Atlanta TRACON
06:10PM 33.9833 -84.5333 59° Northeast 226 260 4,000 -960 Descending Atlanta TRACON
06:11PM 33.9833 -84.4667 90° East 223 257 3,100 -540 Descending Atlanta TRACON
06:12PM 33.9500 -84.4000 121° Southeast 211 243 3,000 -240 Descending Atlanta TRACON
06:13PM 33.9333 -84.3333 107° East 185 213 2,700 -480 Descending Atlanta TRACON
06:14PM 33.9167 -84.2833 112° Southeast 167 192 2,100 -600 Descending Atlanta TRACON
06:16PM 33.8756 -84.3020 90° East  Level Estimated
06:23PM 33.8756 -84.3020 90° East  Level Estimated
06:24PM 33.8756 -84.3020 90° East  Level Estimated